sensor_id;sensor_type;location;lat;lon;timestamp;P1;durP1;ratioP1;P2;durP2;ratioP2
15307;SDS011;7755;52.208;6.964;2022-11-20T00:02:37;25.77;;;20.07;;
15307;SDS011;7755;52.208;6.964;2022-11-20T00:06:39;27.40;;;21.33;;
15307;SDS011;7755;52.208;6.964;2022-11-20T00:10:42;36.20;;;27.80;;
15307;SDS011;7755;52.208;6.964;2022-11-20T00:14:46;41.17;;;29.47;;
15307;SDS011;7755;52.208;6.964;2022-11-20T00:18:48;35.97;;;29.30;;
15307;SDS011;7755;52.208;6.964;2022-11-20T00:22:51;43.73;;;32.97;;
15307;SDS011;7755;52.208;6.964;2022-11-20T00:26:54;53.40;;;38.30;;
15307;SDS011;7755;52.208;6.964;2022-11-20T00:31:02;41.30;;;33.00;;
15307;SDS011;7755;52.208;6.964;2022-11-20T00:35:05;48.13;;;32.07;;
15307;SDS011;7755;52.208;6.964;2022-11-20T00:39:08;58.23;;;38.17;;
15307;SDS011;7755;52.208;6.964;2022-11-20T00:43:11;53.57;;;37.17;;
15307;SDS011;7755;52.208;6.964;2022-11-20T00:47:15;46.90;;;32.10;;
15307;SDS011;7755;52.208;6.964;2022-11-20T00:51:20;44.37;;;32.70;;
15307;SDS011;7755;52.208;6.964;2022-11-20T00:55:24;47.53;;;32.03;;
15307;SDS011;7755;52.208;6.964;2022-11-20T00:59:27;38.03;;;29.63;;
15307;SDS011;7755;52.208;6.964;2022-11-20T01:03:32;39.87;;;29.37;;
15307;SDS011;7755;52.208;6.964;2022-11-20T01:07:34;39.10;;;30.83;;
15307;SDS011;7755;52.208;6.964;2022-11-20T01:11:38;36.73;;;28.13;;
15307;SDS011;7755;52.208;6.964;2022-11-20T01:15:42;33.37;;;26.17;;
15307;SDS011;7755;52.208;6.964;2022-11-20T01:19:49;30.00;;;23.50;;
15307;SDS011;7755;52.208;6.964;2022-11-20T01:23:52;32.60;;;25.60;;
15307;SDS011;7755;52.208;6.964;2022-11-20T01:27:55;32.40;;;25.13;;
15307;SDS011;7755;52.208;6.964;2022-11-20T01:31:58;28.10;;;25.03;;
15307;SDS011;7755;52.208;6.964;2022-11-20T01:36:05;32.37;;;24.83;;
15307;SDS011;7755;52.208;6.964;2022-11-20T01:40:09;26.57;;;23.30;;
15307;SDS011;7755;52.208;6.964;2022-11-20T01:44:14;30.90;;;24.17;;
15307;SDS011;7755;52.208;6.964;2022-11-20T01:48:19;27.90;;;22.87;;
15307;SDS011;7755;52.208;6.964;2022-11-20T01:52:27;31.33;;;25.10;;
15307;SDS011;7755;52.208;6.964;2022-11-20T01:56:35;32.17;;;25.43;;
15307;SDS011;7755;52.208;6.964;2022-11-20T02:00:40;31.07;;;24.77;;
15307;SDS011;7755;52.208;6.964;2022-11-20T02:04:43;25.90;;;23.03;;
15307;SDS011;7755;52.208;6.964;2022-11-20T02:08:47;27.70;;;23.33;;
15307;SDS011;7755;52.208;6.964;2022-11-20T02:12:50;23.30;;;20.30;;
15307;SDS011;7755;52.208;6.964;2022-11-20T02:17:10;25.10;;;20.17;;
15307;SDS011;7755;52.208;6.964;2022-11-20T02:21:16;28.07;;;22.87;;
15307;SDS011;7755;52.208;6.964;2022-11-20T02:25:25;30.80;;;21.83;;
15307;SDS011;7755;52.208;6.964;2022-11-20T02:29:31;29.63;;;24.10;;
15307;SDS011;7755;52.208;6.964;2022-11-20T02:33:38;30.00;;;22.33;;
15307;SDS011;7755;52.208;6.964;2022-11-20T02:37:41;29.10;;;23.10;;
15307;SDS011;7755;52.208;6.964;2022-11-20T02:41:45;26.80;;;21.90;;
15307;SDS011;7755;52.208;6.964;2022-11-20T02:45:48;25.67;;;21.87;;
15307;SDS011;7755;52.208;6.964;2022-11-20T02:49:50;27.60;;;22.40;;
15307;SDS011;7755;52.208;6.964;2022-11-20T02:53:53;28.13;;;22.07;;
15307;SDS011;7755;52.208;6.964;2022-11-20T02:57:57;25.53;;;20.87;;
15307;SDS011;7755;52.208;6.964;2022-11-20T03:01:59;24.93;;;22.10;;
15307;SDS011;7755;52.208;6.964;2022-11-20T03:06:02;27.00;;;21.03;;
15307;SDS011;7755;52.208;6.964;2022-11-20T03:10:05;25.20;;;22.13;;
15307;SDS011;7755;52.208;6.964;2022-11-20T03:14:10;26.87;;;21.40;;
15307;SDS011;7755;52.208;6.964;2022-11-20T03:18:13;28.53;;;21.73;;
15307;SDS011;7755;52.208;6.964;2022-11-20T03:22:15;28.13;;;23.10;;
15307;SDS011;7755;52.208;6.964;2022-11-20T03:26:19;28.63;;;23.30;;
15307;SDS011;7755;52.208;6.964;2022-11-20T03:30:25;24.63;;;20.10;;
15307;SDS011;7755;52.208;6.964;2022-11-20T03:34:31;22.90;;;19.40;;
15307;SDS011;7755;52.208;6.964;2022-11-20T03:38:33;24.10;;;19.63;;
15307;SDS011;7755;52.208;6.964;2022-11-20T03:42:37;24.23;;;20.00;;
15307;SDS011;7755;52.208;6.964;2022-11-20T03:46:50;22.07;;;16.93;;
15307;SDS011;7755;52.208;6.964;2022-11-20T03:50:53;20.43;;;17.70;;
15307;SDS011;7755;52.208;6.964;2022-11-20T03:55:08;24.37;;;19.33;;
15307;SDS011;7755;52.208;6.964;2022-11-20T03:59:11;23.90;;;18.47;;
15307;SDS011;7755;52.208;6.964;2022-11-20T04:03:15;21.93;;;18.20;;
15307;SDS011;7755;52.208;6.964;2022-11-20T04:07:18;21.30;;;17.37;;
15307;SDS011;7755;52.208;6.964;2022-11-20T04:11:21;20.10;;;16.70;;
15307;SDS011;7755;52.208;6.964;2022-11-20T04:15:25;20.00;;;16.07;;
15307;SDS011;7755;52.208;6.964;2022-11-20T04:19:29;22.13;;;16.43;;
15307;SDS011;7755;52.208;6.964;2022-11-20T04:23:32;21.27;;;16.60;;
15307;SDS011;7755;52.208;6.964;2022-11-20T04:27:35;18.80;;;16.20;;
15307;SDS011;7755;52.208;6.964;2022-11-20T04:31:37;17.70;;;14.37;;
15307;SDS011;7755;52.208;6.964;2022-11-20T04:35:41;18.27;;;14.83;;
15307;SDS011;7755;52.208;6.964;2022-11-20T04:39:45;21.47;;;16.33;;
15307;SDS011;7755;52.208;6.964;2022-11-20T04:43:48;17.87;;;14.97;;
15307;SDS011;7755;52.208;6.964;2022-11-20T04:47:51;16.77;;;14.20;;
15307;SDS011;7755;52.208;6.964;2022-11-20T04:51:56;17.53;;;14.73;;
15307;SDS011;7755;52.208;6.964;2022-11-20T04:55:59;19.40;;;14.97;;
15307;SDS011;7755;52.208;6.964;2022-11-20T05:00:02;18.40;;;15.10;;
15307;SDS011;7755;52.208;6.964;2022-11-20T05:04:06;17.53;;;15.17;;
15307;SDS011;7755;52.208;6.964;2022-11-20T05:08:10;18.60;;;14.17;;
15307;SDS011;7755;52.208;6.964;2022-11-20T05:12:13;22.53;;;16.57;;
15307;SDS011;7755;52.208;6.964;2022-11-20T05:16:16;21.47;;;15.60;;
15307;SDS011;7755;52.208;6.964;2022-11-20T05:20:20;19.40;;;15.80;;
15307;SDS011;7755;52.208;6.964;2022-11-20T05:24:24;19.97;;;15.80;;
15307;SDS011;7755;52.208;6.964;2022-11-20T05:28:27;20.07;;;17.97;;
15307;SDS011;7755;52.208;6.964;2022-11-20T05:32:30;20.33;;;16.27;;
15307;SDS011;7755;52.208;6.964;2022-11-20T05:36:33;21.17;;;16.07;;
15307;SDS011;7755;52.208;6.964;2022-11-20T05:40:37;21.87;;;16.73;;
15307;SDS011;7755;52.208;6.964;2022-11-20T05:44:40;20.60;;;15.40;;
15307;SDS011;7755;52.208;6.964;2022-11-20T05:48:44;21.60;;;17.43;;
15307;SDS011;7755;52.208;6.964;2022-11-20T05:52:47;23.00;;;15.93;;
15307;SDS011;7755;52.208;6.964;2022-11-20T05:56:51;20.43;;;16.07;;
15307;SDS011;7755;52.208;6.964;2022-11-20T06:00:54;20.23;;;15.83;;
15307;SDS011;7755;52.208;6.964;2022-11-20T06:04:57;20.53;;;17.23;;
15307;SDS011;7755;52.208;6.964;2022-11-20T06:08:59;21.17;;;16.53;;
15307;SDS011;7755;52.208;6.964;2022-11-20T06:13:03;20.07;;;17.23;;
15307;SDS011;7755;52.208;6.964;2022-11-20T06:17:06;21.10;;;18.77;;
15307;SDS011;7755;52.208;6.964;2022-11-20T06:21:10;24.67;;;18.80;;
15307;SDS011;7755;52.208;6.964;2022-11-20T06:25:14;22.40;;;16.90;;
15307;SDS011;7755;52.208;6.964;2022-11-20T06:29:18;18.13;;;15.37;;
15307;SDS011;7755;52.208;6.964;2022-11-20T06:33:21;18.40;;;16.47;;
15307;SDS011;7755;52.208;6.964;2022-11-20T06:37:24;19.60;;;16.17;;
15307;SDS011;7755;52.208;6.964;2022-11-20T06:41:26;23.13;;;16.80;;
15307;SDS011;7755;52.208;6.964;2022-11-20T06:45:31;20.70;;;17.13;;
15307;SDS011;7755;52.208;6.964;2022-11-20T06:49:34;23.83;;;16.77;;
15307;SDS011;7755;52.208;6.964;2022-11-20T06:53:38;18.47;;;15.90;;
15307;SDS011;7755;52.208;6.964;2022-11-20T06:57:40;20.07;;;16.63;;
15307;SDS011;7755;52.208;6.964;2022-11-20T07:01:44;19.37;;;15.80;;
15307;SDS011;7755;52.208;6.964;2022-11-20T07:05:47;19.57;;;17.07;;
15307;SDS011;7755;52.208;6.964;2022-11-20T07:09:50;18.77;;;15.03;;
15307;SDS011;7755;52.208;6.964;2022-11-20T07:13:52;22.67;;;16.33;;
15307;SDS011;7755;52.208;6.964;2022-11-20T07:17:58;19.87;;;16.33;;
15307;SDS011;7755;52.208;6.964;2022-11-20T07:22:01;22.20;;;16.50;;
15307;SDS011;7755;52.208;6.964;2022-11-20T07:26:04;18.47;;;15.47;;
15307;SDS011;7755;52.208;6.964;2022-11-20T07:30:08;19.23;;;16.60;;
15307;SDS011;7755;52.208;6.964;2022-11-20T07:34:12;17.77;;;15.17;;
15307;SDS011;7755;52.208;6.964;2022-11-20T07:38:15;21.33;;;15.53;;
15307;SDS011;7755;52.208;6.964;2022-11-20T07:42:18;23.67;;;17.43;;
15307;SDS011;7755;52.208;6.964;2022-11-20T07:46:21;21.07;;;17.43;;
15307;SDS011;7755;52.208;6.964;2022-11-20T07:50:25;19.90;;;15.97;;
15307;SDS011;7755;52.208;6.964;2022-11-20T07:54:27;22.90;;;16.47;;
15307;SDS011;7755;52.208;6.964;2022-11-20T07:58:30;22.60;;;16.00;;
15307;SDS011;7755;52.208;6.964;2022-11-20T08:02:36;20.60;;;16.47;;
15307;SDS011;7755;52.208;6.964;2022-11-20T08:06:41;20.60;;;18.20;;
15307;SDS011;7755;52.208;6.964;2022-11-20T08:10:44;24.50;;;18.33;;
15307;SDS011;7755;52.208;6.964;2022-11-20T08:14:46;25.17;;;19.87;;
15307;SDS011;7755;52.208;6.964;2022-11-20T08:18:48;26.47;;;19.37;;
15307;SDS011;7755;52.208;6.964;2022-11-20T08:22:52;23.43;;;18.53;;
15307;SDS011;7755;52.208;6.964;2022-11-20T08:27:00;22.90;;;19.07;;
15307;SDS011;7755;52.208;6.964;2022-11-20T08:31:02;26.13;;;21.03;;
15307;SDS011;7755;52.208;6.964;2022-11-20T08:35:05;25.93;;;20.77;;
15307;SDS011;7755;52.208;6.964;2022-11-20T08:39:12;26.27;;;20.17;;
15307;SDS011;7755;52.208;6.964;2022-11-20T08:43:14;26.03;;;21.07;;
15307;SDS011;7755;52.208;6.964;2022-11-20T08:47:17;25.47;;;20.80;;
15307;SDS011;7755;52.208;6.964;2022-11-20T08:51:20;28.00;;;20.40;;
15307;SDS011;7755;52.208;6.964;2022-11-20T08:55:24;28.47;;;21.87;;
15307;SDS011;7755;52.208;6.964;2022-11-20T08:59:26;23.80;;;19.37;;
15307;SDS011;7755;52.208;6.964;2022-11-20T09:03:49;29.93;;;20.83;;
15307;SDS011;7755;52.208;6.964;2022-11-20T09:07:52;24.97;;;20.43;;
15307;SDS011;7755;52.208;6.964;2022-11-20T09:11:59;26.93;;;20.90;;
15307;SDS011;7755;52.208;6.964;2022-11-20T09:16:02;34.50;;;24.43;;
15307;SDS011;7755;52.208;6.964;2022-11-20T09:20:07;27.70;;;22.07;;
15307;SDS011;7755;52.208;6.964;2022-11-20T09:24:10;28.13;;;22.90;;
15307;SDS011;7755;52.208;6.964;2022-11-20T09:28:14;29.27;;;23.17;;
15307;SDS011;7755;52.208;6.964;2022-11-20T09:32:18;33.17;;;22.87;;
15307;SDS011;7755;52.208;6.964;2022-11-20T09:36:21;29.63;;;24.17;;
15307;SDS011;7755;52.208;6.964;2022-11-20T09:40:25;33.97;;;24.20;;
15307;SDS011;7755;52.208;6.964;2022-11-20T09:44:35;30.67;;;25.30;;
15307;SDS011;7755;52.208;6.964;2022-11-20T09:48:57;26.33;;;21.77;;
15307;SDS011;7755;52.208;6.964;2022-11-20T09:53:20;29.30;;;23.20;;
15307;SDS011;7755;52.208;6.964;2022-11-20T09:57:31;32.10;;;25.57;;
15307;SDS011;7755;52.208;6.964;2022-11-20T10:01:39;33.53;;;25.27;;
15307;SDS011;7755;52.208;6.964;2022-11-20T10:05:45;31.67;;;24.20;;
15307;SDS011;7755;52.208;6.964;2022-11-20T10:09:51;31.07;;;24.07;;
15307;SDS011;7755;52.208;6.964;2022-11-20T10:13:57;32.43;;;23.70;;
15307;SDS011;7755;52.208;6.964;2022-11-20T10:18:16;30.40;;;24.63;;
15307;SDS011;7755;52.208;6.964;2022-11-20T10:22:30;30.13;;;23.33;;
15307;SDS011;7755;52.208;6.964;2022-11-20T10:26:42;30.47;;;23.03;;
15307;SDS011;7755;52.208;6.964;2022-11-20T10:30:54;29.00;;;23.10;;
15307;SDS011;7755;52.208;6.964;2022-11-20T10:35:04;29.10;;;22.30;;
15307;SDS011;7755;52.208;6.964;2022-11-20T10:39:14;30.23;;;22.83;;
15307;SDS011;7755;52.208;6.964;2022-11-20T10:43:24;31.10;;;22.77;;
15307;SDS011;7755;52.208;6.964;2022-11-20T10:47:35;25.07;;;21.63;;
15307;SDS011;7755;52.208;6.964;2022-11-20T10:51:43;28.00;;;22.70;;
15307;SDS011;7755;52.208;6.964;2022-11-20T10:55:58;27.50;;;21.07;;
15307;SDS011;7755;52.208;6.964;2022-11-20T11:00:06;26.03;;;20.70;;
15307;SDS011;7755;52.208;6.964;2022-11-20T11:04:18;24.50;;;20.83;;
15307;SDS011;7755;52.208;6.964;2022-11-20T11:08:37;23.30;;;20.43;;
15307;SDS011;7755;52.208;6.964;2022-11-20T11:12:43;22.57;;;18.57;;
15307;SDS011;7755;52.208;6.964;2022-11-20T11:16:51;24.47;;;20.57;;
15307;SDS011;7755;52.208;6.964;2022-11-20T11:20:55;25.47;;;21.03;;
15307;SDS011;7755;52.208;6.964;2022-11-20T11:25:00;26.77;;;20.83;;
15307;SDS011;7755;52.208;6.964;2022-11-20T11:29:04;25.03;;;21.17;;
15307;SDS011;7755;52.208;6.964;2022-11-20T11:33:09;24.47;;;21.10;;
15307;SDS011;7755;52.208;6.964;2022-11-20T11:37:15;25.33;;;20.60;;
15307;SDS011;7755;52.208;6.964;2022-11-20T11:41:25;23.10;;;20.53;;
15307;SDS011;7755;52.208;6.964;2022-11-20T11:45:32;23.57;;;20.17;;
15307;SDS011;7755;52.208;6.964;2022-11-20T11:49:35;24.17;;;20.87;;
15307;SDS011;7755;52.208;6.964;2022-11-20T11:53:38;26.57;;;21.80;;
15307;SDS011;7755;52.208;6.964;2022-11-20T11:57:45;22.17;;;19.63;;
15307;SDS011;7755;52.208;6.964;2022-11-20T12:01:53;23.40;;;20.13;;
15307;SDS011;7755;52.208;6.964;2022-11-20T12:06:01;23.57;;;19.40;;
15307;SDS011;7755;52.208;6.964;2022-11-20T12:10:13;26.67;;;22.10;;
15307;SDS011;7755;52.208;6.964;2022-11-20T12:14:22;23.07;;;19.63;;
15307;SDS011;7755;52.208;6.964;2022-11-20T12:18:33;22.50;;;19.40;;
15307;SDS011;7755;52.208;6.964;2022-11-20T12:22:38;22.23;;;19.10;;
15307;SDS011;7755;52.208;6.964;2022-11-20T12:26:55;20.40;;;17.40;;
15307;SDS011;7755;52.208;6.964;2022-11-20T12:31:13;19.10;;;16.77;;
15307;SDS011;7755;52.208;6.964;2022-11-20T12:35:47;17.90;;;16.00;;
15307;SDS011;7755;52.208;6.964;2022-11-20T12:40:08;17.07;;;14.67;;
15307;SDS011;7755;52.208;6.964;2022-11-20T12:44:32;17.93;;;15.70;;
15307;SDS011;7755;52.208;6.964;2022-11-20T12:49:08;17.03;;;15.30;;
15307;SDS011;7755;52.208;6.964;2022-11-20T12:53:25;18.70;;;14.63;;
15307;SDS011;7755;52.208;6.964;2022-11-20T12:57:36;19.70;;;16.27;;
15307;SDS011;7755;52.208;6.964;2022-11-20T13:01:49;16.97;;;15.17;;
15307;SDS011;7755;52.208;6.964;2022-11-20T13:06:00;19.40;;;17.07;;
15307;SDS011;7755;52.208;6.964;2022-11-20T13:10:18;18.77;;;16.77;;
15307;SDS011;7755;52.208;6.964;2022-11-20T13:14:30;19.13;;;15.47;;
15307;SDS011;7755;52.208;6.964;2022-11-20T13:18:39;20.67;;;16.63;;
15307;SDS011;7755;52.208;6.964;2022-11-20T13:22:45;19.50;;;16.67;;
15307;SDS011;7755;52.208;6.964;2022-11-20T13:26:59;19.13;;;15.77;;
15307;SDS011;7755;52.208;6.964;2022-11-20T13:31:03;19.47;;;16.07;;
15307;SDS011;7755;52.208;6.964;2022-11-20T13:35:08;19.97;;;16.10;;
15307;SDS011;7755;52.208;6.964;2022-11-20T13:39:12;19.70;;;17.10;;
15307;SDS011;7755;52.208;6.964;2022-11-20T13:43:27;18.63;;;15.80;;
15307;SDS011;7755;52.208;6.964;2022-11-20T13:47:37;18.87;;;15.87;;
15307;SDS011;7755;52.208;6.964;2022-11-20T13:51:40;18.30;;;15.93;;
15307;SDS011;7755;52.208;6.964;2022-11-20T13:55:48;19.07;;;16.10;;
15307;SDS011;7755;52.208;6.964;2022-11-20T13:59:58;21.83;;;17.30;;
15307;SDS011;7755;52.208;6.964;2022-11-20T14:04:11;19.93;;;17.23;;
15307;SDS011;7755;52.208;6.964;2022-11-20T14:08:23;22.83;;;17.97;;
15307;SDS011;7755;52.208;6.964;2022-11-20T14:12:32;22.23;;;18.30;;
15307;SDS011;7755;52.208;6.964;2022-11-20T14:16:35;20.27;;;18.07;;
15307;SDS011;7755;52.208;6.964;2022-11-20T14:20:38;21.03;;;17.83;;
15307;SDS011;7755;52.208;6.964;2022-11-20T14:24:42;22.87;;;19.53;;
15307;SDS011;7755;52.208;6.964;2022-11-20T14:28:48;25.53;;;18.77;;
15307;SDS011;7755;52.208;6.964;2022-11-20T14:32:53;23.40;;;18.93;;
15307;SDS011;7755;52.208;6.964;2022-11-20T14:36:58;25.03;;;19.67;;
15307;SDS011;7755;52.208;6.964;2022-11-20T14:41:05;24.03;;;20.87;;
15307;SDS011;7755;52.208;6.964;2022-11-20T14:45:12;25.07;;;20.47;;
15307;SDS011;7755;52.208;6.964;2022-11-20T14:49:14;25.87;;;20.30;;
15307;SDS011;7755;52.208;6.964;2022-11-20T14:53:21;24.23;;;19.93;;
15307;SDS011;7755;52.208;6.964;2022-11-20T14:57:25;25.47;;;19.60;;
15307;SDS011;7755;52.208;6.964;2022-11-20T15:01:31;28.03;;;20.73;;
15307;SDS011;7755;52.208;6.964;2022-11-20T15:05:45;28.47;;;20.33;;
15307;SDS011;7755;52.208;6.964;2022-11-20T15:09:58;23.60;;;19.67;;
15307;SDS011;7755;52.208;6.964;2022-11-20T15:14:03;27.97;;;23.23;;
15307;SDS011;7755;52.208;6.964;2022-11-20T15:18:11;27.53;;;21.00;;
15307;SDS011;7755;52.208;6.964;2022-11-20T15:22:15;26.57;;;21.70;;
15307;SDS011;7755;52.208;6.964;2022-11-20T15:26:19;28.50;;;22.57;;
15307;SDS011;7755;52.208;6.964;2022-11-20T15:30:25;28.70;;;22.87;;
15307;SDS011;7755;52.208;6.964;2022-11-20T15:34:29;28.27;;;21.60;;
15307;SDS011;7755;52.208;6.964;2022-11-20T15:38:32;31.87;;;24.47;;
15307;SDS011;7755;52.208;6.964;2022-11-20T15:42:35;32.97;;;24.13;;
15307;SDS011;7755;52.208;6.964;2022-11-20T15:46:38;32.70;;;23.73;;
15307;SDS011;7755;52.208;6.964;2022-11-20T15:50:48;33.40;;;25.13;;
15307;SDS011;7755;52.208;6.964;2022-11-20T15:54:54;32.60;;;24.93;;
15307;SDS011;7755;52.208;6.964;2022-11-20T15:58:58;30.47;;;22.50;;
15307;SDS011;7755;52.208;6.964;2022-11-20T16:03:00;29.53;;;21.80;;
15307;SDS011;7755;52.208;6.964;2022-11-20T16:07:05;28.20;;;23.73;;
15307;SDS011;7755;52.208;6.964;2022-11-20T16:11:09;31.50;;;23.40;;
15307;SDS011;7755;52.208;6.964;2022-11-20T16:15:13;29.60;;;23.57;;
15307;SDS011;7755;52.208;6.964;2022-11-20T16:19:33;31.87;;;22.97;;
15307;SDS011;7755;52.208;6.964;2022-11-20T16:23:37;31.47;;;24.53;;
15307;SDS011;7755;52.208;6.964;2022-11-20T16:27:40;29.37;;;22.90;;
15307;SDS011;7755;52.208;6.964;2022-11-20T16:31:42;30.00;;;23.30;;
15307;SDS011;7755;52.208;6.964;2022-11-20T16:35:45;33.43;;;24.07;;
15307;SDS011;7755;52.208;6.964;2022-11-20T16:39:49;35.17;;;24.90;;
15307;SDS011;7755;52.208;6.964;2022-11-20T16:43:52;29.10;;;24.50;;
15307;SDS011;7755;52.208;6.964;2022-11-20T16:47:58;32.83;;;25.50;;
15307;SDS011;7755;52.208;6.964;2022-11-20T16:52:00;31.43;;;24.33;;
15307;SDS011;7755;52.208;6.964;2022-11-20T16:56:11;35.13;;;26.67;;
15307;SDS011;7755;52.208;6.964;2022-11-20T17:00:16;32.87;;;24.70;;
15307;SDS011;7755;52.208;6.964;2022-11-20T17:04:18;35.53;;;27.70;;
15307;SDS011;7755;52.208;6.964;2022-11-20T17:08:22;31.30;;;23.77;;
15307;SDS011;7755;52.208;6.964;2022-11-20T17:12:26;31.53;;;24.53;;
15307;SDS011;7755;52.208;6.964;2022-11-20T17:16:29;32.53;;;26.43;;
15307;SDS011;7755;52.208;6.964;2022-11-20T17:20:32;38.70;;;27.90;;
15307;SDS011;7755;52.208;6.964;2022-11-20T17:24:35;35.50;;;28.43;;
15307;SDS011;7755;52.208;6.964;2022-11-20T17:28:39;33.20;;;27.43;;
15307;SDS011;7755;52.208;6.964;2022-11-20T17:32:42;37.57;;;28.57;;
15307;SDS011;7755;52.208;6.964;2022-11-20T17:36:47;35.90;;;27.50;;
15307;SDS011;7755;52.208;6.964;2022-11-20T17:40:49;36.60;;;27.80;;
15307;SDS011;7755;52.208;6.964;2022-11-20T17:44:53;33.90;;;26.23;;
15307;SDS011;7755;52.208;6.964;2022-11-20T17:48:56;36.57;;;28.67;;
15307;SDS011;7755;52.208;6.964;2022-11-20T17:52:59;38.27;;;29.50;;
15307;SDS011;7755;52.208;6.964;2022-11-20T17:57:02;42.57;;;30.90;;
15307;SDS011;7755;52.208;6.964;2022-11-20T18:01:24;47.00;;;34.97;;
15307;SDS011;7755;52.208;6.964;2022-11-20T18:05:26;46.93;;;33.90;;
15307;SDS011;7755;52.208;6.964;2022-11-20T18:09:29;44.97;;;32.50;;
15307;SDS011;7755;52.208;6.964;2022-11-20T18:13:32;43.87;;;33.07;;
15307;SDS011;7755;52.208;6.964;2022-11-20T18:17:49;43.07;;;31.40;;
15307;SDS011;7755;52.208;6.964;2022-11-20T18:21:53;54.23;;;35.63;;
15307;SDS011;7755;52.208;6.964;2022-11-20T18:25:58;47.27;;;36.03;;
15307;SDS011;7755;52.208;6.964;2022-11-20T18:30:01;44.97;;;32.47;;
15307;SDS011;7755;52.208;6.964;2022-11-20T18:34:05;45.53;;;33.63;;
15307;SDS011;7755;52.208;6.964;2022-11-20T18:38:11;49.70;;;36.33;;
15307;SDS011;7755;52.208;6.964;2022-11-20T18:42:14;42.03;;;31.10;;
15307;SDS011;7755;52.208;6.964;2022-11-20T18:46:35;50.27;;;33.50;;
15307;SDS011;7755;52.208;6.964;2022-11-20T18:50:39;34.50;;;27.67;;
15307;SDS011;7755;52.208;6.964;2022-11-20T18:54:42;44.07;;;30.10;;
15307;SDS011;7755;52.208;6.964;2022-11-20T18:58:44;38.43;;;27.80;;
15307;SDS011;7755;52.208;6.964;2022-11-20T19:02:47;37.03;;;25.87;;
15307;SDS011;7755;52.208;6.964;2022-11-20T19:06:51;35.23;;;25.20;;
15307;SDS011;7755;52.208;6.964;2022-11-20T19:11:03;33.43;;;22.97;;
15307;SDS011;7755;52.208;6.964;2022-11-20T19:15:07;30.50;;;21.47;;
15307;SDS011;7755;52.208;6.964;2022-11-20T19:19:10;27.70;;;21.63;;
15307;SDS011;7755;52.208;6.964;2022-11-20T19:23:14;27.33;;;21.40;;
15307;SDS011;7755;52.208;6.964;2022-11-20T19:27:18;36.13;;;25.57;;
15307;SDS011;7755;52.208;6.964;2022-11-20T19:31:22;27.47;;;21.27;;
15307;SDS011;7755;52.208;6.964;2022-11-20T19:35:27;29.40;;;23.40;;
15307;SDS011;7755;52.208;6.964;2022-11-20T19:39:31;34.47;;;24.53;;
15307;SDS011;7755;52.208;6.964;2022-11-20T19:43:35;31.30;;;22.60;;
15307;SDS011;7755;52.208;6.964;2022-11-20T19:47:38;31.43;;;23.57;;
15307;SDS011;7755;52.208;6.964;2022-11-20T19:52:01;34.90;;;25.57;;
15307;SDS011;7755;52.208;6.964;2022-11-20T19:56:05;35.17;;;25.93;;
15307;SDS011;7755;52.208;6.964;2022-11-20T20:00:09;37.17;;;25.03;;
15307;SDS011;7755;52.208;6.964;2022-11-20T20:04:20;34.03;;;24.83;;
15307;SDS011;7755;52.208;6.964;2022-11-20T20:08:22;31.40;;;23.37;;
15307;SDS011;7755;52.208;6.964;2022-11-20T20:12:26;32.70;;;24.20;;
15307;SDS011;7755;52.208;6.964;2022-11-20T20:16:29;36.83;;;25.23;;
15307;SDS011;7755;52.208;6.964;2022-11-20T20:20:32;31.83;;;23.50;;
15307;SDS011;7755;52.208;6.964;2022-11-20T20:24:35;33.73;;;25.27;;
15307;SDS011;7755;52.208;6.964;2022-11-20T20:28:39;31.03;;;23.17;;
15307;SDS011;7755;52.208;6.964;2022-11-20T20:32:42;31.20;;;23.73;;
15307;SDS011;7755;52.208;6.964;2022-11-20T20:36:44;31.63;;;24.77;;
15307;SDS011;7755;52.208;6.964;2022-11-20T20:40:47;29.30;;;22.53;;
15307;SDS011;7755;52.208;6.964;2022-11-20T20:44:51;38.30;;;27.30;;
15307;SDS011;7755;52.208;6.964;2022-11-20T20:49:08;27.90;;;21.00;;
15307;SDS011;7755;52.208;6.964;2022-11-20T20:53:11;30.93;;;23.50;;
15307;SDS011;7755;52.208;6.964;2022-11-20T20:57:14;29.10;;;23.77;;
15307;SDS011;7755;52.208;6.964;2022-11-20T21:01:18;32.47;;;24.33;;
15307;SDS011;7755;52.208;6.964;2022-11-20T21:05:22;30.20;;;23.43;;
15307;SDS011;7755;52.208;6.964;2022-11-20T21:09:25;28.20;;;23.03;;
15307;SDS011;7755;52.208;6.964;2022-11-20T21:13:28;39.17;;;28.73;;
15307;SDS011;7755;52.208;6.964;2022-11-20T21:17:32;38.87;;;27.53;;
15307;SDS011;7755;52.208;6.964;2022-11-20T21:21:35;40.00;;;29.93;;
15307;SDS011;7755;52.208;6.964;2022-11-20T21:25:55;34.20;;;25.67;;
15307;SDS011;7755;52.208;6.964;2022-11-20T21:29:58;37.60;;;28.07;;
15307;SDS011;7755;52.208;6.964;2022-11-20T21:34:02;31.17;;;24.40;;
15307;SDS011;7755;52.208;6.964;2022-11-20T21:38:05;32.13;;;25.47;;
15307;SDS011;7755;52.208;6.964;2022-11-20T21:42:07;35.87;;;26.63;;
15307;SDS011;7755;52.208;6.964;2022-11-20T21:46:10;35.70;;;26.00;;
15307;SDS011;7755;52.208;6.964;2022-11-20T21:50:16;32.83;;;24.00;;
15307;SDS011;7755;52.208;6.964;2022-11-20T21:54:19;33.93;;;25.40;;
15307;SDS011;7755;52.208;6.964;2022-11-20T21:58:22;31.50;;;22.97;;
15307;SDS011;7755;52.208;6.964;2022-11-20T22:02:25;34.63;;;26.57;;
15307;SDS011;7755;52.208;6.964;2022-11-20T22:06:30;33.10;;;24.43;;
15307;SDS011;7755;52.208;6.964;2022-11-20T22:10:35;36.47;;;27.10;;
15307;SDS011;7755;52.208;6.964;2022-11-20T22:14:38;36.77;;;27.73;;
15307;SDS011;7755;52.208;6.964;2022-11-20T22:18:41;49.63;;;33.23;;
15307;SDS011;7755;52.208;6.964;2022-11-20T22:22:46;38.23;;;27.27;;
15307;SDS011;7755;52.208;6.964;2022-11-20T22:26:49;34.17;;;25.90;;
15307;SDS011;7755;52.208;6.964;2022-11-20T22:30:55;33.00;;;25.17;;
15307;SDS011;7755;52.208;6.964;2022-11-20T22:34:59;28.73;;;22.00;;
15307;SDS011;7755;52.208;6.964;2022-11-20T22:39:03;31.10;;;23.33;;
15307;SDS011;7755;52.208;6.964;2022-11-20T22:43:07;29.40;;;23.13;;
15307;SDS011;7755;52.208;6.964;2022-11-20T22:47:09;33.23;;;24.97;;
15307;SDS011;7755;52.208;6.964;2022-11-20T22:51:13;33.97;;;24.50;;
15307;SDS011;7755;52.208;6.964;2022-11-20T22:55:18;31.03;;;23.83;;
15307;SDS011;7755;52.208;6.964;2022-11-20T22:59:20;31.43;;;24.50;;
15307;SDS011;7755;52.208;6.964;2022-11-20T23:03:23;26.97;;;21.03;;
15307;SDS011;7755;52.208;6.964;2022-11-20T23:07:26;34.37;;;25.90;;
15307;SDS011;7755;52.208;6.964;2022-11-20T23:11:30;34.63;;;25.90;;
15307;SDS011;7755;52.208;6.964;2022-11-20T23:15:34;34.63;;;27.63;;
15307;SDS011;7755;52.208;6.964;2022-11-20T23:19:36;39.73;;;28.13;;
15307;SDS011;7755;52.208;6.964;2022-11-20T23:23:39;32.20;;;26.50;;
15307;SDS011;7755;52.208;6.964;2022-11-20T23:27:43;31.43;;;25.53;;
15307;SDS011;7755;52.208;6.964;2022-11-20T23:31:46;28.90;;;23.10;;
15307;SDS011;7755;52.208;6.964;2022-11-20T23:35:48;29.00;;;23.10;;
15307;SDS011;7755;52.208;6.964;2022-11-20T23:39:51;33.50;;;23.30;;
15307;SDS011;7755;52.208;6.964;2022-11-20T23:43:55;29.10;;;23.37;;
15307;SDS011;7755;52.208;6.964;2022-11-20T23:47:58;31.90;;;25.20;;
15307;SDS011;7755;52.208;6.964;2022-11-20T23:52:00;37.53;;;28.73;;
15307;SDS011;7755;52.208;6.964;2022-11-20T23:56:03;33.43;;;26.33;;
